Time;durP1;ratioP1;P1;durP2;ratioP2;P2;SDS_P1;SDS_P2;PMS_P1;PMS_P2;Temp;Humidity;BMP_temperature;BMP_pressure;BME280_temperature;BME280_humidity;BME280_pressure;Samples;Min_cycle;Max_cycle;Signal;HPM_P1;HPM_P2
2023/01/20 00:01:30;;;;;;;;;33.67;30.67;;;;;-0.56;99.65;97796.47;4958052;28;102422;-73
2023/01/20 00:03:57;;;;;;;;;39.00;26.67;;;;;-0.54;99.80;97795.31;4964223;28;102439;-73
2023/01/20 00:06:28;;;;;;;;;45.00;36.33;;;;;-0.60;98.73;97795.09;4970857;28;104020;-72
2023/01/20 00:08:57;;;;;;;;;41.00;32.33;;;;;-0.63;99.61;97788.25;4966837;28;102199;-72
2023/01/20 00:11:25;;;;;;;;;30.33;27.00;;;;;-0.72;99.56;97773.22;4964227;28;102731;-73
2023/01/20 00:13:54;;;;;;;;;26.00;23.00;;;;;-0.86;99.41;97749.91;4970429;28;102407;-73
2023/01/20 00:16:22;;;;;;;;;22.67;17.67;;;;;-0.60;99.37;97784.47;4970208;28;104023;-73
2023/01/20 00:18:49;;;;;;;;;18.67;13.00;;;;;-0.55;99.59;97784.88;4960727;28;102645;-73
2023/01/20 00:21:16;;;;;;;;;12.33;12.00;;;;;-0.58;99.43;97774.53;4964538;28;102566;-73
2023/01/20 00:23:45;;;;;;;;;22.67;15.33;;;;;-0.57;99.05;97779.69;4969745;28;101973;-73
2023/01/20 00:26:15;;;;;;;;;10.33;7.67;;;;;-0.57;99.33;97782.34;4956134;28;103648;-73
2023/01/20 00:28:43;;;;;;;;;9.67;7.67;;;;;-0.56;99.02;97786.69;4953229;28;102056;-73
2023/01/20 00:31:14;;;;;;;;;9.00;7.33;;;;;-0.60;99.30;97780.00;4971627;28;101929;-73
2023/01/20 00:33:41;;;;;;;;;9.00;6.67;;;;;-0.58;99.49;97785.16;4968004;27;103260;-73
2023/01/20 00:36:09;;;;;;;;;8.00;5.00;;;;;-0.62;99.44;97794.41;4963222;28;104097;-73
2023/01/20 00:38:37;;;;;;;;;5.00;4.00;;;;;-0.67;98.80;97799.31;4961641;27;102402;-73
2023/01/20 00:41:04;;;;;;;;;5.33;4.67;;;;;-0.75;98.97;97793.94;4962045;27;102193;-73
2023/01/20 00:43:32;;;;;;;;;7.33;5.67;;;;;-0.83;97.94;97804.47;4963949;27;102077;-73
2023/01/20 00:45:59;;;;;;;;;8.00;5.00;;;;;-0.93;98.37;97800.06;4966784;28;103971;-73
2023/01/20 00:48:26;;;;;;;;;7.00;4.00;;;;;-1.01;98.22;97810.59;4959343;28;102220;-73
2023/01/20 00:50:53;;;;;;;;;4.00;1.00;;;;;-1.37;98.08;97772.53;4966367;28;102366;-73
2023/01/20 00:53:20;;;;;;;;;4.67;4.00;;;;;-1.30;96.26;97809.03;4953530;28;102538;-73
2023/01/20 00:55:47;;;;;;;;;2.00;2.00;;;;;-1.43;97.41;97804.09;4960431;28;104033;-73
2023/01/20 00:58:14;;;;;;;;;2.00;1.00;;;;;-1.53;96.88;97808.59;4956906;27;102135;-73
2023/01/20 01:00:41;;;;;;;;;7.33;3.33;;;;;-1.59;98.72;97822.44;4970970;28;102233;-73
2023/01/20 01:03:11;;;;;;;;;6.33;4.00;;;;;-1.68;98.00;97820.66;4967704;28;103062;-73
2023/01/20 01:05:38;;;;;;;;;1.67;1.67;;;;;-1.84;98.69;97815.94;4962303;28;108497;-73
2023/01/20 01:08:05;;;;;;;;;2.00;1.67;;;;;-2.11;98.18;97781.41;4966962;27;102552;-73
2023/01/20 01:10:32;;;;;;;;;1.67;1.00;;;;;-2.00;97.88;97821.81;4952169;28;102186;-73
2023/01/20 01:13:00;;;;;;;;;6.33;4.00;;;;;-2.06;97.53;97848.88;4966464;28;102290;-73
2023/01/20 01:15:27;;;;;;;;;2.00;1.00;;;;;-2.12;97.18;97851.25;4960145;28;104052;-73
2023/01/20 01:17:56;;;;;;;;;2.67;2.67;;;;;-2.20;98.75;97857.22;4962213;28;102147;-73
2023/01/20 01:20:24;;;;;;;;;6.67;2.00;;;;;-2.30;97.65;97862.53;4967499;28;102019;-75
2023/01/20 01:22:54;;;;;;;;;7.00;4.33;;;;;-2.39;98.50;97868.69;4970427;28;102032;-73
2023/01/20 01:25:22;;;;;;;;;6.33;4.00;;;;;-2.54;98.47;97851.53;4970084;28;103991;-73
2023/01/20 01:27:49;;;;;;;;;4.33;2.67;;;;;-2.45;98.19;97878.97;4956595;27;103181;-73
2023/01/20 01:30:16;;;;;;;;;3.33;1.67;;;;;-2.67;99.95;97847.47;4973090;27;102178;-73
2023/01/20 01:32:43;;;;;;;;;4.33;2.00;;;;;-2.44;100.00;97885.94;4964092;28;102350;-72
2023/01/20 01:35:10;;;;;;;;;10.00;5.00;;;;;-2.53;99.41;97876.19;4970349;28;104087;-73
2023/01/20 01:37:37;;;;;;;;;8.00;7.00;;;;;-2.46;100.00;97882.59;4970812;28;102299;-73
2023/01/20 01:40:05;;;;;;;;;4.67;4.00;;;;;-2.41;100.00;97889.16;4968994;28;102303;-73
2023/01/20 01:42:32;;;;;;;;;4.00;3.33;;;;;-2.34;100.00;97894.72;4957595;28;102281;-72
2023/01/20 01:45:11;;;;;;;;;7.00;5.67;;;;;-2.27;100.00;97887.91;4971342;28;104006;-73
2023/01/20 01:47:46;;;;;;;;;10.00;8.00;;;;;-2.19;100.00;97879.25;4970676;28;102626;-73
2023/01/20 01:50:19;;;;;;;;;63.00;43.67;;;;;-2.17;100.00;97856.97;4959064;28;103836;-72
2023/01/20 01:52:51;;;;;;;;;79.50;59.50;;;;;-2.15;100.00;97839.13;4951798;28;102276;-72
2023/01/20 01:55:24;;;;;;;;;71.00;54.75;;;;;-2.10;100.00;97842.19;4961274;28;104022;-72
2023/01/20 01:57:52;;;;;;;;;53.67;43.33;;;;;-2.09;100.00;97838.56;4971838;28;102597;-74
2023/01/20 02:00:20;;;;;;;;;53.00;43.00;;;;;-2.09;100.00;97841.22;4957458;28;102039;-73
2023/01/20 02:02:47;;;;;;;;;25.33;17.00;;;;;-2.08;100.00;97845.53;4964734;28;102394;-73
2023/01/20 02:05:16;;;;;;;;;24.33;20.33;;;;;-2.11;100.00;97861.69;4956899;28;103987;-75
2023/01/20 02:07:46;;;;;;;;;26.33;20.33;;;;;-2.17;100.00;97877.31;4961883;28;102240;-73
2023/01/20 02:10:23;;;;;;;;;21.33;20.00;;;;;-2.22;100.00;97871.59;4958640;28;102062;-73
2023/01/20 02:13:22;;;;;;;;;;;;;;;;;;;;;
2023/01/20 02:16:36;;;;;;;;;74.00;49.00;;;;;-2.54;99.91;97851.53;4957059;28;107398;-73
2023/01/20 02:19:49;;;;;;;;;82.50;60.25;;;;;-2.62;100.00;97839.97;4955191;28;102552;-73
2023/01/20 02:23:06;;;;;;;;;58.33;46.67;;;;;-2.59;100.00;97839.66;4960572;28;102523;-73
2023/01/20 02:26:05;;;;;;;;;40.67;34.67;;;;;-2.57;100.00;97840.38;4964798;28;102298;-72
2023/01/20 02:28:51;;;;;;;;;29.00;21.33;;;;;-2.57;100.00;97840.38;4966616;27;108881;-73
2023/01/20 02:31:50;;;;;;;;;22.67;17.67;;;;;-2.59;100.00;97832.56;4965036;28;102253;-73
2023/01/20 02:34:26;;;;;;;;;18.33;14.67;;;;;-2.61;100.00;97841.63;4957173;28;102163;-73
2023/01/20 02:36:58;;;;;;;;;17.00;13.33;;;;;-2.62;100.00;97861.13;4965090;28;102364;-73
2023/01/20 02:39:51;;;;;;;;;28.67;19.00;;;;;-2.78;100.00;97874.88;4968175;28;104464;-73
2023/01/20 02:42:23;;;;;;;;;17.67;16.00;;;;;-2.91;100.00;97869.81;4953933;28;102444;-72
2023/01/20 02:45:07;;;;;;;;;32.00;24.00;;;;;-2.97;100.00;97883.59;4962157;28;102070;-73
2023/01/20 02:47:44;;;;;;;;;24.33;18.33;;;;;-2.96;100.00;97877.31;4959864;28;103488;-73
2023/01/20 02:50:27;;;;;;;;;11.33;10.00;;;;;-3.10;100.00;97856.53;4956367;28;108647;-72
2023/01/20 02:52:58;;;;;;;;;29.00;23.67;;;;;-3.11;100.00;97860.19;4951383;28;102939;-72
2023/01/20 02:55:33;;;;;;;;;33.67;27.33;;;;;-3.15;99.90;97870.16;4951858;28;111302;-72
2023/01/20 02:58:06;;;;;;;;;22.33;20.00;;;;;-3.16;100.00;97867.66;4956521;28;110741;-73
2023/01/20 03:00:45;;;;;;;;;20.00;17.33;;;;;-3.20;100.00;97863.63;4962703;28;103947;-73
2023/01/20 03:03:17;;;;;;;;;13.33;11.00;;;;;-3.22;100.00;97874.31;4962190;28;103657;-73
2023/01/20 03:05:51;;;;;;;;;18.33;15.33;;;;;-3.35;100.00;97855.22;4948964;28;102040;-74
2023/01/20 03:08:20;;;;;;;;;15.33;10.00;;;;;-3.32;100.00;97859.38;4952549;28;102142;-73
2023/01/20 03:10:51;;;;;;;;;16.00;14.00;;;;;-3.39;100.00;97876.75;4957140;28;103963;-73
2023/01/20 03:13:43;;;;;;;;;13.00;11.00;;;;;-3.47;99.80;97890.63;4961794;28;102218;-75
2023/01/20 03:16:16;;;;;;;;;33.67;22.33;;;;;-3.54;100.00;97888.63;4961302;28;102490;-73
2023/01/20 03:18:44;;;;;;;;;40.67;31.00;;;;;-3.66;100.00;97883.44;4962826;28;102535;-73
2023/01/20 03:21:12;;;;;;;;;37.33;30.00;;;;;-3.67;99.91;97894.13;4970061;28;104915;-72
2023/01/20 03:23:47;;;;;;;;;25.00;24.00;;;;;-3.65;99.44;97895.66;4962549;28;102537;-73
2023/01/20 03:26:16;;;;;;;;;24.67;16.67;;;;;-3.63;100.00;97896.38;4947738;28;102194;-73
2023/01/20 03:28:44;;;;;;;;;19.33;16.33;;;;;-3.62;99.91;97902.50;4971537;27;102662;-73
2023/01/20 03:31:29;;;;;;;;;16.67;11.33;;;;;-3.65;99.94;97906.22;4966210;28;104181;-73
2023/01/20 03:34:00;;;;;;;;;32.67;28.67;;;;;-3.73;100.00;97921.03;4960567;27;103461;-73
2023/01/20 03:36:29;;;;;;;;;59.50;48.00;;;;;-3.88;100.00;97922.34;4969507;28;102376;-73
2023/01/20 03:38:57;;;;;;;;;45.33;37.33;;;;;-3.84;99.92;97921.13;4970153;27;102314;-73
2023/01/20 03:41:55;;;;;;;;;42.33;34.00;;;;;-3.83;100.00;97925.44;4951094;28;103991;-74
2023/01/20 03:44:47;;;;;;;;;41.67;28.00;;;;;-3.87;99.80;97924.03;4960253;28;102924;-73
2023/01/20 03:47:48;;;;;;;;;44.25;38.25;;;;;-3.93;100.00;97919.25;4966992;28;102016;-73
2023/01/20 03:50:33;;;;;;;;;53.33;39.67;;;;;-4.08;100.00;97889.66;4967628;28;102192;-73
2023/01/20 03:53:16;;;;;;;;;39.33;31.00;;;;;-3.83;100.00;97926.28;4958639;28;104260;-73
2023/01/20 03:55:50;;;;;;;;;45.75;32.00;;;;;-3.72;100.00;97936.78;4965205;28;102302;-73
2023/01/20 03:58:23;;;;;;;;;35.33;32.33;;;;;-3.63;100.00;97937.78;4963316;28;102296;-74
2023/01/20 04:00:51;;;;;;;;;26.67;20.33;;;;;-3.58;100.00;97930.31;4965199;28;102257;-74
2023/01/20 04:03:22;;;;;;;;;22.00;18.33;;;;;-3.69;100.00;97918.00;4961216;28;103991;-74
2023/01/20 04:05:50;;;;;;;;;34.33;29.00;;;;;-3.54;100.00;97939.66;4956927;28;102106;-73
2023/01/20 04:08:21;;;;;;;;;68.50;49.50;;;;;-3.49;100.00;97939.28;4964639;28;102213;-74
2023/01/20 04:10:50;;;;;;;;;63.50;43.50;;;;;-3.43;100.00;97949.34;4961948;28;102072;-73
2023/01/20 04:13:17;;;;;;;;;39.33;31.00;;;;;-3.39;100.00;97945.47;4961206;28;104162;-74
2023/01/20 04:15:45;;;;;;;;;30.67;28.00;;;;;-3.42;100.00;97932.53;4966068;28;102209;-73
2023/01/20 04:18:15;;;;;;;;;19.00;11.00;;;;;-3.30;100.00;97950.81;4959826;28;102525;-73
2023/01/20 04:20:49;;;;;;;;;32.00;28.33;;;;;-3.30;100.00;97944.69;4966282;28;102189;-73
2023/01/20 04:23:24;;;;;;;;;49.75;43.75;;;;;-3.32;100.00;97941.31;4961187;28;104034;-73
2023/01/20 04:25:51;;;;;;;;;54.00;42.75;;;;;-3.30;100.00;97944.69;4966527;27;102571;-73
2023/01/20 04:28:18;;;;;;;;;59.25;45.00;;;;;-3.34;100.00;97949.41;4968485;28;102720;-73
2023/01/20 04:30:45;;;;;;;;;55.75;44.25;;;;;-3.30;100.00;97950.81;4967287;27;102472;-74
2023/01/20 04:33:12;;;;;;;;;59.50;45.25;;;;;-3.30;100.00;97949.97;4952089;28;104203;-72
2023/01/20 04:35:39;;;;;;;;;50.33;35.33;;;;;-3.25;100.00;97963.63;4969770;28;102237;-73
2023/01/20 04:38:06;;;;;;;;;50.33;32.67;;;;;-3.23;100.00;97982.81;4971115;28;103862;-73
2023/01/20 04:40:33;;;;;;;;;51.67;40.00;;;;;-3.24;100.00;97974.06;4959331;28;103022;-73
2023/01/20 04:43:00;;;;;;;;;50.33;40.67;;;;;-3.24;100.00;97973.22;4957493;28;104129;-73
2023/01/20 04:45:27;;;;;;;;;47.67;40.33;;;;;-3.26;100.00;97983.09;4964331;27;102247;-73
2023/01/20 04:47:54;;;;;;;;;60.33;44.00;;;;;-3.26;100.00;97985.75;4961734;28;102234;-73
2023/01/20 04:50:21;;;;;;;;;67.00;48.75;;;;;-3.39;100.00;97977.19;4948446;28;102520;-73
2023/01/20 04:52:48;;;;;;;;;52.00;35.33;;;;;-3.29;100.00;97984.19;4949496;28;104034;-73
2023/01/20 04:55:15;;;;;;;;;43.00;36.67;;;;;-3.22;100.00;97987.16;4948659;28;102441;-73
2023/01/20 04:57:43;;;;;;;;;32.00;28.00;;;;;-3.26;100.00;97967.22;4955046;28;102253;-74
2023/01/20 05:00:10;;;;;;;;;26.00;22.67;;;;;-3.17;100.00;97972.56;4970938;28;102221;-74
2023/01/20 05:02:37;;;;;;;;;42.67;35.67;;;;;-3.21;100.00;97987.03;4971342;28;108866;-73
2023/01/20 05:05:04;;;;;;;;;25.67;25.00;;;;;-3.16;100.00;97978.72;4968808;28;102239;-74
2023/01/20 05:07:31;;;;;;;;;37.00;26.00;;;;;-3.20;100.00;97982.59;4961224;28;101874;-74
2023/01/20 05:09:58;;;;;;;;;41.00;30.67;;;;;-3.31;100.00;97980.00;4966557;27;102014;-73
2023/01/20 05:12:25;;;;;;;;;38.33;30.00;;;;;-3.38;100.00;97981.50;4963781;28;104216;-73
2023/01/20 05:14:52;;;;;;;;;30.00;26.00;;;;;-3.35;100.00;97989.16;4956418;28;102657;-73
2023/01/20 05:17:19;;;;;;;;;23.00;20.00;;;;;-3.30;100.00;97992.25;4968754;28;103095;-73
2023/01/20 05:19:46;;;;;;;;;16.67;12.33;;;;;-3.28;100.00;97991.16;4962291;28;101906;-73
2023/01/20 05:22:13;;;;;;;;;11.00;11.00;;;;;-3.26;100.00;98006.88;4965300;28;103753;-73
2023/01/20 05:24:40;;;;;;;;;12.33;9.33;;;;;-3.30;100.00;98002.81;4961626;28;102438;-73
2023/01/20 05:27:07;;;;;;;;;9.33;8.67;;;;;-3.32;100.00;97997.66;4964793;28;103047;-73
2023/01/20 05:29:34;;;;;;;;;12.33;10.00;;;;;-3.32;100.00;97999.47;4968811;28;102480;-73
2023/01/20 05:32:02;;;;;;;;;10.67;10.00;;;;;-3.36;100.00;98012.09;4969445;28;103041;-73
2023/01/20 05:34:29;;;;;;;;;7.00;6.00;;;;;-3.33;100.00;98003.91;4963884;28;102810;-73
2023/01/20 05:36:55;;;;;;;;;5.33;5.33;;;;;-3.35;100.00;98011.16;4962982;28;103854;-73
2023/01/20 05:39:22;;;;;;;;;7.00;2.00;;;;;-3.35;100.00;98020.88;4969249;28;102342;-73
2023/01/20 05:41:49;;;;;;;;;1.67;1.33;;;;;-3.33;100.00;98014.47;4951710;28;104174;-73
2023/01/20 05:44:16;;;;;;;;;11.67;8.00;;;;;-3.36;100.00;98024.47;4966014;28;102404;-72
2023/01/20 05:46:43;;;;;;;;;16.00;11.33;;;;;-3.41;100.00;98018.72;4961303;28;101875;-73
2023/01/20 05:49:11;;;;;;;;;13.33;10.33;;;;;-3.44;100.00;98026.94;4951602;28;104024;-73
2023/01/20 05:51:38;;;;;;;;;11.00;7.67;;;;;-3.42;100.00;98025.81;4959426;28;108633;-72
2023/01/20 05:54:05;;;;;;;;;7.00;7.00;;;;;-3.44;100.00;98024.28;4964232;28;102426;-73
2023/01/20 05:56:32;;;;;;;;;7.67;7.00;;;;;-3.41;100.00;98027.50;4954315;28;102290;-73
2023/01/20 05:58:59;;;;;;;;;22.00;16.33;;;;;-3.45;100.00;98030.53;4957135;28;102488;-73
2023/01/20 06:01:41;;;;;;;;;19.33;11.00;;;;;-3.45;100.00;98025.25;4937656;28;107018;-72
2023/01/20 06:04:09;;;;;;;;;16.00;12.67;;;;;-3.48;100.00;98026.34;4960824;28;102322;-73
2023/01/20 06:06:36;;;;;;;;;13.33;10.67;;;;;-3.50;100.00;98028.28;4949746;28;102383;-73
2023/01/20 06:09:03;;;;;;;;;15.33;11.00;;;;;-3.49;100.00;98035.25;4964885;28;102364;-73
2023/01/20 06:11:30;;;;;;;;;15.00;14.33;;;;;-3.53;100.00;98028.53;4964931;28;104008;-72
2023/01/20 06:13:57;;;;;;;;;25.33;18.00;;;;;-3.53;100.00;98032.97;4939409;28;102843;-72
2023/01/20 06:16:24;;;;;;;;;21.33;19.00;;;;;-3.60;100.00;98040.56;4963724;28;101997;-73
2023/01/20 06:18:51;;;;;;;;;27.00;21.00;;;;;-3.58;100.00;98043.09;4971795;28;102245;-73
2023/01/20 06:21:18;;;;;;;;;29.67;19.00;;;;;-3.54;100.00;98039.22;4958391;27;104135;-72
2023/01/20 06:23:45;;;;;;;;;22.33;16.00;;;;;-3.49;100.00;98047.59;4971636;28;102217;-73
2023/01/20 06:26:13;;;;;;;;;17.00;13.33;;;;;-3.50;100.00;98048.56;4969977;27;101995;-72
2023/01/20 06:28:41;;;;;;;;;16.00;10.33;;;;;-3.52;100.00;98055.81;4973799;28;102353;-73
2023/01/20 06:31:14;;;;;;;;;14.67;10.33;;;;;-3.50;100.00;98048.56;4967943;28;108575;-73
2023/01/20 06:33:42;;;;;;;;;10.00;5.00;;;;;-3.46;100.00;98056.13;4972585;28;102827;-73
2023/01/20 06:36:14;;;;;;;;;13.33;8.00;;;;;-3.56;100.00;98043.81;4968915;28;102200;-73
2023/01/20 06:38:43;;;;;;;;;4.67;4.00;;;;;-3.36;100.00;98058.84;4960312;27;102529;-73
2023/01/20 06:41:11;;;;;;;;;8.33;8.33;;;;;-3.31;100.00;98059.28;4963060;27;108487;-74
2023/01/20 06:43:41;;;;;;;;;13.33;9.33;;;;;-3.39;100.00;98067.03;4964956;28;102395;-74
2023/01/20 06:46:11;;;;;;;;;26.00;20.00;;;;;-3.46;100.00;98066.69;4956440;28;102216;-76
2023/01/20 06:48:39;;;;;;;;;18.00;15.67;;;;;-3.43;100.00;98073.53;4953116;28;103100;-76
2023/01/20 06:51:09;;;;;;;;;20.33;13.67;;;;;-3.46;100.00;98060.56;4945553;28;103778;-74
2023/01/20 06:53:36;;;;;;;;;12.33;11.33;;;;;-3.38;100.00;98082.78;4942974;28;102003;-74
2023/01/20 06:56:03;;;;;;;;;15.33;12.33;;;;;-3.46;100.00;98084.34;4966990;28;103169;-75
2023/01/20 06:58:32;;;;;;;;;13.00;10.67;;;;;-3.50;100.00;98064.41;4961083;28;102519;-75
2023/01/20 07:01:21;;;;;;;;;19.67;12.33;;;;;-3.39;100.00;98078.44;4956032;28;104012;-75
2023/01/20 07:03:48;;;;;;;;;13.33;11.67;;;;;-3.46;100.00;98061.41;4956857;28;102474;-75
2023/01/20 07:06:30;;;;;;;;;14.33;7.00;;;;;-3.25;100.00;98079.94;4965785;28;102158;-75
2023/01/20 07:08:58;;;;;;;;;10.00;7.00;;;;;-3.26;100.00;98089.66;4956093;28;102333;-75
2023/01/20 07:11:27;;;;;;;;;10.33;8.33;;;;;-3.31;100.00;98081.28;4960441;28;104193;-75
2023/01/20 07:13:54;;;;;;;;;22.67;17.33;;;;;-3.34;100.00;98099.19;4960605;28;102631;-75
2023/01/20 07:16:21;;;;;;;;;28.00;23.00;;;;;-3.38;100.00;98103.06;4949199;28;102047;-75
2023/01/20 07:18:50;;;;;;;;;29.33;18.33;;;;;-3.41;100.00;98105.94;4952148;28;102023;-75
2023/01/20 07:21:17;;;;;;;;;25.00;16.67;;;;;-3.58;100.00;98106.50;4942964;28;104041;-74
2023/01/20 07:23:45;;;;;;;;;32.00;28.00;;;;;-3.58;100.00;98111.78;4962893;28;102354;-75
2023/01/20 07:26:15;;;;;;;;;22.67;20.00;;;;;-3.45;100.00;98117.72;4973152;28;102039;-75
2023/01/20 07:28:42;;;;;;;;;24.00;17.00;;;;;-3.42;100.00;98126.25;4966900;28;104734;-72
2023/01/20 07:31:20;;;;;;;;;28.67;19.33;;;;;-3.50;100.00;98123.41;4959486;28;104114;-75
2023/01/20 07:33:48;;;;;;;;;30.00;22.33;;;;;-3.46;100.00;98119.53;4944620;28;102682;-75
2023/01/20 07:36:16;;;;;;;;;34.33;23.67;;;;;-3.46;100.00;98116.03;4962466;28;102471;-73
2023/01/20 07:38:47;;;;;;;;;27.33;21.33;;;;;-3.39;100.00;98104.88;4966251;28;102426;-72
2023/01/20 07:41:15;;;;;;;;;25.67;24.67;;;;;-3.39;100.00;98099.59;4970213;28;104004;-74
2023/01/20 07:43:43;;;;;;;;;28.67;24.67;;;;;-3.34;100.00;98110.63;4971370;28;102509;-76
2023/01/20 07:46:11;;;;;;;;;31.00;26.00;;;;;-3.55;100.00;98059.50;4965104;28;102364;-74
2023/01/20 07:48:38;;;;;;;;;53.00;38.67;;;;;-3.29;100.00;98104.94;4962720;28;103201;-74
2023/01/20 07:51:08;;;;;;;;;29.00;25.00;;;;;-3.19;100.00;98104.03;4951751;28;104026;-75
2023/01/20 07:53:46;;;;;;;;;46.67;37.00;;;;;-3.15;100.00;98109.91;4959954;28;102597;-75
2023/01/20 07:56:16;;;;;;;;;45.33;32.67;;;;;-3.13;100.00;98112.44;4942084;28;102069;-75
2023/01/20 07:58:44;;;;;;;;;52.00;36.00;;;;;-3.07;100.00;98106.66;4952047;28;102263;-75
2023/01/20 08:01:23;;;;;;;;;35.00;28.33;;;;;-2.88;100.00;98114.72;4957973;28;103980;-75
2023/01/20 08:03:50;;;;;;;;;33.00;23.00;;;;;-2.80;100.00;98123.69;4943923;28;102067;-75
2023/01/20 08:06:21;;;;;;;;;37.67;22.00;;;;;-2.64;100.00;98117.91;4959856;28;102828;-75
2023/01/20 08:08:49;;;;;;;;;24.00;21.00;;;;;-2.42;99.24;98112.44;4960603;28;102176;-75
2023/01/20 08:11:18;;;;;;;;;21.00;17.00;;;;;-2.19;98.98;98118.41;4963696;28;104022;-75
2023/01/20 08:13:45;;;;;;;;;25.33;17.33;;;;;-2.11;96.51;98126.50;4971284;28;102985;-74
2023/01/20 08:16:14;;;;;;;;;12.00;10.00;;;;;-1.97;98.40;98110.25;4974334;28;102502;-74
2023/01/20 08:18:42;;;;;;;;;34.00;16.00;;;;;-1.91;94.63;98120.31;4969730;28;102509;-75
2023/01/20 08:21:23;;;;;;;;;36.00;27.00;;;;;-1.87;93.90;98124.38;4972569;28;108157;-75
2023/01/20 08:23:50;;;;;;;;;38.00;29.67;;;;;-1.89;93.15;98120.19;4971966;28;102463;-74
2023/01/20 08:26:18;;;;;;;;;54.00;39.67;;;;;-1.87;92.42;98115.59;4970141;28;102004;-74
2023/01/20 08:28:45;;;;;;;;;57.00;45.33;;;;;-1.94;92.67;98125.06;4971730;27;102479;-74
2023/01/20 08:31:15;;;;;;;;;65.00;44.00;;;;;-2.08;94.88;98136.88;4974718;28;103975;-74
2023/01/20 08:33:43;;;;;;;;;53.00;42.33;;;;;-2.06;95.43;98134.91;4974301;28;102496;-74
2023/01/20 08:36:14;;;;;;;;;56.00;43.00;;;;;-2.06;94.60;98140.19;4974060;28;102321;-74
2023/01/20 08:38:41;;;;;;;;;60.67;45.33;;;;;-2.02;95.38;98148.72;4973947;28;102563;-74
2023/01/20 08:41:11;;;;;;;;;58.33;42.00;;;;;-1.95;95.17;98155.16;4957959;28;104074;-74
2023/01/20 08:43:38;;;;;;;;;40.00;31.33;;;;;-1.75;96.57;98153.41;4949462;28;102339;-74
2023/01/20 08:46:09;;;;;;;;;55.33;43.00;;;;;-1.82;96.19;98153.97;4962206;28;102332;-74
2023/01/20 08:48:38;;;;;;;;;38.33;32.33;;;;;-1.76;94.61;98152.59;4947016;28;102372;-74
2023/01/20 08:51:09;;;;;;;;;51.33;40.33;;;;;-1.90;96.40;98156.44;4963743;28;104005;-73
2023/01/20 08:53:36;;;;;;;;;73.00;51.00;;;;;-2.20;96.86;98118.53;4948203;28;102260;-74
2023/01/20 08:56:03;;;;;;;;;74.67;50.67;;;;;-1.96;95.84;98156.97;4959032;28;102280;-73
2023/01/20 08:58:30;;;;;;;;;54.33;45.67;;;;;-2.17;96.50;98116.47;4960829;28;101985;-73
2023/01/20 09:00:57;;;;;;;;;50.67;42.00;;;;;-1.78;98.07;98165.13;4954952;28;103965;-74
2023/01/20 09:03:25;;;;;;;;;38.33;28.00;;;;;-1.69;97.38;98152.88;4973605;28;102407;-72
2023/01/20 09:05:52;;;;;;;;;68.67;49.67;;;;;-1.85;96.01;98154.22;4968950;28;101994;-73
2023/01/20 09:08:19;;;;;;;;;53.67;43.00;;;;;-1.70;97.48;98157.31;4971112;28;102716;-74
2023/01/20 09:10:46;;;;;;;;;57.00;43.33;;;;;-1.72;96.12;98140.75;4971584;28;103493;-74
2023/01/20 09:13:13;;;;;;;;;40.33;36.33;;;;;-1.51;95.32;98159.19;4974047;28;102278;-73
2023/01/20 09:15:40;;;;;;;;;65.67;43.33;;;;;-1.42;95.80;98153.91;4972196;28;101984;-73
2023/01/20 09:18:07;;;;;;;;;56.67;39.33;;;;;-1.36;95.90;98161.31;4975744;28;102215;-73
2023/01/20 09:20:34;;;;;;;;;35.67;28.00;;;;;-1.18;95.75;98173.91;4965801;28;103515;-74
2023/01/20 09:23:01;;;;;;;;;39.33;32.33;;;;;-1.27;94.56;98148.22;4959550;28;102086;-74
2023/01/20 09:25:29;;;;;;;;;55.33;40.00;;;;;-1.20;93.71;98146.66;4963620;28;102223;-74
2023/01/20 09:27:59;;;;;;;;;49.67;31.67;;;;;-0.98;92.50;98165.81;4967808;28;102405;-74
2023/01/20 09:30:27;;;;;;;;;42.00;39.00;;;;;-0.93;92.44;98163.56;4970198;28;103976;-74
2023/01/20 09:32:56;;;;;;;;;43.33;35.00;;;;;-0.75;92.35;98170.81;4970174;28;102229;-74
2023/01/20 09:35:24;;;;;;;;;91.25;61.50;;;;;-0.98;91.58;98162.31;4969354;28;102675;-74
2023/01/20 09:43:55;;;;;;;;;63.00;48.00;;;;;-0.82;93.92;98162.59;4968074;28;102422;-74
2023/01/20 09:47:18;;;;;;;;;71.67;53.67;;;;;-0.93;92.62;98168.88;4955074;28;102172;-74
2023/01/20 09:55:43;;;;;;;;;59.67;45.33;;;;;-0.79;91.71;98161.47;4967153;28;102634;-73
2023/01/20 09:58:24;;;;;;;;;61.00;46.00;;;;;-0.83;93.15;98157.44;4965637;28;102465;-74
2023/01/20 10:01:05;;;;;;;;;61.67;44.33;;;;;-0.81;93.20;98166.09;4947015;28;102534;-72
2023/01/20 10:03:47;;;;;;;;;67.33;49.00;;;;;-0.82;93.75;98156.44;4963651;28;103350;-72
2023/01/20 10:06:23;;;;;;;;;72.50;52.75;;;;;-1.02;94.28;98153.78;4960851;28;102621;-72
2023/01/20 10:08:59;;;;;;;;;76.33;54.33;;;;;-0.99;95.43;98153.50;4970472;28;102458;-73
2023/01/20 10:11:42;;;;;;;;;65.00;49.00;;;;;-0.95;93.92;98149.63;4967650;27;101941;-73
2023/01/20 10:14:24;;;;;;;;;62.33;46.33;;;;;-0.84;95.60;98153.09;4956944;27;104265;-72
2023/01/20 10:17:04;;;;;;;;;77.25;55.25;;;;;-0.97;93.94;98148.91;4962837;28;102499;-73
2023/01/20 10:19:41;;;;;;;;;64.00;50.00;;;;;-0.98;95.51;98144.56;4964387;28;102406;-73
2023/01/20 10:22:33;;;;;;;;;62.00;48.00;;;;;-1.07;95.02;98096.81;4972369;28;102291;-72
2023/01/20 10:25:19;;;;;;;;;44.33;38.33;;;;;-0.57;94.68;98142.56;4959562;28;108653;-72
2023/01/20 10:27:58;;;;;;;;;43.67;36.67;;;;;-0.49;93.71;98150.66;4954812;28;102104;-71
2023/01/20 10:30:31;;;;;;;;;52.33;36.67;;;;;-0.43;94.10;98154.56;4963258;28;103156;-72
2023/01/20 10:33:09;;;;;;;;;58.67;43.00;;;;;-0.41;92.96;98153.47;4945256;28;102301;-72
2023/01/20 10:35:45;;;;;;;;;43.67;34.33;;;;;-0.27;93.53;98155.63;4957883;28;104049;-72
2023/01/20 10:38:51;;;;;;;;;41.33;37.67;;;;;-0.30;92.62;98155.09;4956219;28;102188;-73
2023/01/20 10:41:42;;;;;;;;;52.33;43.67;;;;;-0.26;92.34;98157.31;4962494;28;102046;-73
2023/01/20 10:44:15;;;;;;;;;62.00;44.67;;;;;-0.41;92.10;98153.47;4968462;28;102111;-73
2023/01/20 10:46:53;;;;;;;;;61.33;45.33;;;;;-0.44;93.64;98156.38;4953077;28;108639;-73
2023/01/20 10:49:48;;;;;;;;;61.00;44.67;;;;;-0.34;92.79;98154.56;4957099;28;102507;-73
2023/01/20 10:52:36;;;;;;;;;55.00;42.00;;;;;-0.23;92.24;98165.03;4960341;28;102167;-73
2023/01/20 10:55:06;;;;;;;;;72.00;49.33;;;;;-0.33;92.83;98166.84;4954624;28;102258;-73
2023/01/20 10:57:33;;;;;;;;;63.00;50.00;;;;;-0.44;93.43;98161.69;4950693;28;104139;-73
2023/01/20 11:00:06;;;;;;;;;58.00;43.33;;;;;-0.50;92.41;98156.97;4966265;28;102359;-73
2023/01/20 11:02:36;;;;;;;;;69.00;51.00;;;;;-0.74;92.92;98168.03;4938676;28;102377;-73
2023/01/20 11:05:10;;;;;;;;;69.00;50.33;;;;;-0.82;94.10;98173.22;4935135;28;102133;-73
2023/01/20 11:07:36;;;;;;;;;62.33;46.67;;;;;-0.82;95.32;98173.22;4960928;28;103695;-74
2023/01/20 11:10:23;;;;;;;;;55.33;42.33;;;;;-0.98;95.15;98171.09;4971512;28;102956;-73
2023/01/20 11:12:54;;;;;;;;;62.67;47.00;;;;;-0.83;95.24;98160.06;4962553;27;104477;-72
2023/01/20 11:15:24;;;;;;;;;64.00;46.67;;;;;-0.97;93.52;98156.88;4950393;28;102461;-73
2023/01/20 11:18:13;;;;;;;;;66.33;48.00;;;;;-0.98;95.83;98149.03;4952415;28;103974;-72
2023/01/20 11:20:59;;;;;;;;;55.67;46.67;;;;;-0.88;95.33;98149.88;4968526;28;103131;-73
2023/01/20 11:23:41;;;;;;;;;65.67;45.67;;;;;-0.80;94.02;98150.00;4968830;27;102645;-73
2023/01/20 11:26:31;;;;;;;;;61.67;45.33;;;;;-0.78;93.03;98145.41;4971297;28;102343;-73
2023/01/20 11:29:00;;;;;;;;;62.67;41.67;;;;;-0.75;93.35;98138.97;4962801;28;108648;-73
2023/01/20 11:31:38;;;;;;;;;65.33;40.67;;;;;-0.64;94.38;98125.56;4959623;28;102314;-73
2023/01/20 11:34:24;;;;;;;;;45.00;37.00;;;;;-0.38;93.45;98139.88;4952618;28;101982;-73
2023/01/20 11:37:18;;;;;;;;;42.67;36.33;;;;;-0.39;93.40;98127.56;4954674;28;102024;-73
2023/01/20 11:39:48;;;;;;;;;58.33;46.33;;;;;-0.49;92.22;98129.41;4956803;28;108137;-73
2023/01/20 11:42:20;;;;;;;;;52.00;44.33;;;;;-0.50;93.62;98125.94;4957959;28;102211;-73
2023/01/20 11:44:51;;;;;;;;;49.67;42.67;;;;;-0.44;94.28;98119.22;4953910;28;102151;-74